Time;durP1;ratioP1;P1;durP2;ratioP2;P2;SDS_P1;SDS_P2;PMS_P1;PMS_P2;Temp;Humidity;BMP_temperature;BMP_pressure;BME280_temperature;BME280_humidity;BME280_pressure;Samples;Min_cycle;Max_cycle;Signal;HPM_P1;HPM_P2
2021/07/21 00:00:29;;;;;;;17.98;10.32;;;;;;;12.90;89.76;99611.19;5066655;28;20020;-67
2021/07/21 00:02:55;;;;;;;16.13;9.70;;;;;;;12.81;89.85;99600.72;5066506;28;20040;-67
2021/07/21 00:05:22;;;;;;;17.55;9.93;;;;;;;12.87;90.09;99621.78;5066740;28;20330;-67
2021/07/21 00:07:48;;;;;;;17.15;9.55;;;;;;;12.88;90.12;99597.09;5066658;28;20236;-67
2021/07/21 00:10:17;;;;;;;16.52;9.68;;;;;;;12.82;89.65;99594.53;5066788;28;20040;-67
2021/07/21 00:15:29;;;;;;;15.43;9.90;;;;;;;12.49;90.30;99639.84;5066639;28;20215;-67
2021/07/21 00:18:00;;;;;;;15.95;9.45;;;;;;;12.44;90.12;99630.25;5066583;28;20317;-67
2021/07/21 00:20:29;;;;;;;14.82;8.80;;;;;;;12.49;90.22;99649.53;5065823;28;20096;-67
2021/07/21 00:22:54;;;;;;;15.65;8.40;;;;;;;12.59;90.16;99651.19;5066335;28;20228;-67
2021/07/21 00:25:20;;;;;;;19.88;10.40;;;;;;;12.68;90.30;99649.31;5066423;28;20024;-67
2021/07/21 00:27:46;;;;;;;16.92;9.65;;;;;;;12.73;89.76;99647.50;5066417;28;20027;-67
2021/07/21 00:30:16;;;;;;;13.57;9.10;;;;;;;12.60;89.80;99614.19;5065196;28;20223;-67
2021/07/21 00:32:42;;;;;;;15.05;8.30;;;;;;;12.50;89.80;99694.41;5065459;28;20017;-67
2021/07/21 00:35:11;;;;;;;16.30;9.77;;;;;;;12.36;90.34;99659.38;5066278;28;20048;-67
2021/07/21 00:37:37;;;;;;;14.68;9.35;;;;;;;12.38;90.30;99657.59;5066265;28;20220;-67
2021/07/21 00:40:08;;;;;;;16.98;8.65;;;;;;;12.47;90.18;99675.97;5066221;28;20085;-67
2021/07/21 00:42:34;;;;;;;18.33;8.90;;;;;;;12.35;89.90;99693.69;5066131;28;20025;-67
2021/07/21 00:44:59;;;;;;;17.92;8.98;;;;;;;12.18;89.99;99711.47;5065976;28;20028;-67
2021/07/21 00:47:25;;;;;;;14.88;9.18;;;;;;;12.18;90.64;99728.16;5066069;28;20017;-67
2021/07/21 00:49:50;;;;;;;23.10;10.00;;;;;;;12.10;90.12;99740.56;5063024;28;20059;-67
2021/07/21 00:52:17;;;;;;;13.75;9.40;;;;;;;12.20;90.60;99750.16;5050729;28;20092;-67
2021/07/21 00:54:45;;;;;;;19.85;9.65;;;;;;;12.07;90.14;99756.41;5065921;28;20017;-67
2021/07/21 00:57:11;;;;;;;14.52;9.27;;;;;;;12.06;90.42;99764.34;5065865;28;20021;-67
2021/07/21 00:59:37;;;;;;;14.63;8.52;;;;;;;12.16;90.57;99788.03;5057803;28;20019;-67
2021/07/21 01:02:03;;;;;;;18.02;8.77;;;;;;;12.10;90.00;99788.06;5046038;28;20021;-67
2021/07/21 01:04:32;;;;;;;17.25;9.43;;;;;;;12.04;90.21;99769.63;5045573;28;20092;-67
2021/07/21 01:06:59;;;;;;;13.13;8.02;;;;;;;11.99;90.15;99752.09;5045739;28;20031;-67
2021/07/21 01:09:25;;;;;;;18.13;10.15;;;;;;;11.98;90.20;99777.59;5045521;28;20222;-67
2021/07/21 01:12:03;;;;;;;20.63;9.48;;;;;;;11.87;90.40;99766.22;5045630;28;20070;-67
2021/07/21 01:14:51;;;;;;;17.63;8.77;;;;;;;11.89;90.23;99796.09;5044366;28;20018;-67
2021/07/21 01:17:23;;;;;;;16.10;8.90;;;;;;;11.91;90.58;99801.38;5045484;28;20033;-67
2021/07/21 01:20:17;;;;;;;14.63;8.82;;;;;;;11.89;90.51;99814.56;5045513;28;20028;-67
2021/07/21 01:22:45;;;;;;;15.15;7.68;;;;;;;12.06;90.79;99822.41;5045411;28;20364;-67
2021/07/21 01:25:13;;;;;;;16.23;9.20;;;;;;;11.93;90.29;99861.16;5057426;28;20308;-67
2021/07/21 01:27:55;;;;;;;17.52;9.38;;;;;;;11.89;90.34;99846.25;5065273;28;20271;-67
2021/07/21 01:30:31;;;;;;;13.98;7.82;;;;;;;11.99;90.54;99884.88;5065312;28;20025;-67
2021/07/21 01:33:03;;;;;;;12.55;7.88;;;;;;;12.04;90.42;99900.69;5065037;28;20051;-67
2021/07/21 01:35:53;;;;;;;11.48;7.55;;;;;;;11.99;90.68;99913.03;5045881;28;20028;-67
2021/07/21 01:38:23;;;;;;;14.30;7.93;;;;;;;11.81;89.61;99879.72;5045147;28;20100;-67
2021/07/21 01:40:59;;;;;;;14.68;7.70;;;;;;;11.70;89.63;99864.78;5045046;28;20036;-67
2021/07/21 01:43:33;;;;;;;13.60;7.93;;;;;;;11.69;91.00;99900.84;5045051;28;20343;-67
2021/07/21 01:46:01;;;;;;;12.52;7.88;;;;;;;11.74;90.77;99917.53;5044935;28;20071;-67
2021/07/21 01:48:32;;;;;;;14.93;8.20;;;;;;;11.55;91.07;99915.78;5044941;28;20093;-67
2021/07/21 01:50:59;;;;;;;12.88;7.55;;;;;;;11.53;90.81;99909.66;5044902;28;20051;-67
2021/07/21 01:53:26;;;;;;;13.43;7.65;;;;;;;11.40;90.19;99960.69;5044838;28;20044;-67
2021/07/21 01:55:53;;;;;;;14.70;8.05;;;;;;;11.44;91.15;99928.16;5044771;28;20029;-67
2021/07/21 01:58:19;;;;;;;16.08;9.23;;;;;;;11.46;91.48;99939.56;5056216;28;20025;-67
2021/07/21 02:00:48;;;;;;;16.55;9.95;;;;;;;11.50;91.68;99972.06;5063517;28;20320;-68
2021/07/21 02:03:14;;;;;;;16.75;8.20;;;;;;;11.55;91.05;99992.25;5063351;28;20096;-68
2021/07/21 02:05:41;;;;;;;12.35;6.30;;;;;;;11.54;90.96;99977.34;5064540;28;20048;-68
2021/07/21 02:08:07;;;;;;;21.02;8.60;;;;;;;11.53;90.69;100009.88;5060909;28;20108;-68
2021/07/21 02:10:33;;;;;;;17.80;8.13;;;;;;;11.53;90.89;99986.13;5044649;28;20033;-68
2021/07/21 02:13:07;;;;;;;11.35;7.07;;;;;;;11.55;90.26;100026.53;5044500;28;20084;-68
2021/07/21 02:15:33;;;;;;;13.30;7.03;;;;;;;11.58;90.03;100045.00;5043320;28;20096;-68
2021/07/21 02:17:59;;;;;;;15.23;7.80;;;;;;;11.37;89.92;100103.03;5044392;28;20083;-68
2021/07/21 02:20:26;;;;;;;14.68;7.25;;;;;;;11.31;90.16;100050.31;5044611;28;20033;-68
2021/07/21 02:22:52;;;;;;;10.20;6.63;;;;;;;11.43;89.96;100008.13;5043160;28;20025;-68
2021/07/21 02:25:24;;;;;;;11.65;5.88;;;;;;;11.45;90.36;100016.91;5044186;28;20363;-68
2021/07/21 02:27:51;;;;;;;9.73;5.80;;;;;;;11.48;90.51;100043.25;5043168;28;20032;-68
2021/07/21 02:30:17;;;;;;;14.40;6.95;;;;;;;11.29;90.45;100045.91;5044241;28;20128;-68
2021/07/21 02:33:07;;;;;;;12.73;7.03;;;;;;;11.28;90.68;100128.50;5044242;28;20025;-68
2021/07/21 02:35:33;;;;;;;11.82;6.95;;;;;;;11.30;90.37;100072.28;5044163;28;20212;-68
2021/07/21 02:37:59;;;;;;;12.98;6.90;;;;;;;11.22;90.21;100103.00;5042963;28;20017;-68
2021/07/21 02:40:25;;;;;;;11.82;7.13;;;;;;;11.14;90.08;100099.50;5044082;28;20081;-68
2021/07/21 02:42:51;;;;;;;11.25;7.20;;;;;;;11.16;90.49;100133.72;5049143;28;20040;-68
2021/07/21 02:45:17;;;;;;;15.80;7.80;;;;;;;11.12;90.39;100122.31;5063386;28;20372;-68
2021/07/21 02:47:42;;;;;;;19.42;8.35;;;;;;;11.15;91.46;100129.34;5063942;28;20028;-68
2021/07/21 02:50:10;;;;;;;11.65;6.97;;;;;;;11.25;90.77;100150.47;5063915;28;20066;-68
2021/07/21 02:52:41;;;;;;;13.82;7.50;;;;;;;11.06;90.59;100177.66;5063869;28;20017;-68
2021/07/21 02:55:25;;;;;;;11.67;6.97;;;;;;;11.04;90.38;100171.47;5063933;28;20047;-68
2021/07/21 02:58:20;;;;;;;11.55;6.57;;;;;;;11.07;90.95;100118.78;5051053;28;20239;-68
2021/07/21 03:00:46;;;;;;;13.18;7.43;;;;;;;11.03;90.40;100148.66;5025596;28;20321;-68
2021/07/21 03:03:16;;;;;;;15.32;7.25;;;;;;;10.96;90.54;100167.94;5043795;28;20053;-68
2021/07/21 03:05:44;;;;;;;12.90;7.88;;;;;;;10.89;90.39;100179.34;5043776;28;20028;-68
2021/07/21 03:08:11;;;;;;;12.30;7.57;;;;;;;10.95;91.22;100160.94;5042469;28;20037;-68
2021/07/21 03:10:40;;;;;;;10.68;6.90;;;;;;;11.07;90.72;100178.53;5043755;28;20051;-68
2021/07/21 03:13:11;;;;;;;15.23;7.28;;;;;;;10.85;90.02;100235.50;5042586;28;20017;-67
2021/07/21 03:15:40;;;;;;;14.82;6.78;;;;;;;10.83;90.61;100197.75;5043795;28;20264;-67
2021/07/21 03:18:14;;;;;;;13.63;7.43;;;;;;;10.88;90.86;100217.06;5054786;28;20025;-67
2021/07/21 03:20:42;;;;;;;12.23;6.15;;;;;;;10.93;90.41;100183.75;5053449;28;20025;-67
2021/07/21 03:23:08;;;;;;;9.77;6.00;;;;;;;10.86;90.57;100250.47;5043667;28;20025;-67
2021/07/21 03:25:34;;;;;;;12.43;6.35;;;;;;;10.85;90.39;100338.22;5043848;28;20032;-67
2021/07/21 03:28:01;;;;;;;12.65;6.60;;;;;;;10.78;90.64;100247.78;5043615;28;20048;-67
2021/07/21 03:30:28;;;;;;;11.20;6.80;;;;;;;10.71;90.45;100256.53;5043582;28;20021;-67
2021/07/21 03:32:54;;;;;;;13.07;7.97;;;;;;;10.70;90.29;100248.63;5043539;28;20316;-67
2021/07/21 03:35:23;;;;;;;11.32;7.13;;;;;;;10.82;90.49;100280.25;5043548;28;20029;-67
2021/07/21 03:37:50;;;;;;;9.95;6.43;;;;;;;10.90;90.67;100318.97;5043527;28;20220;-67
2021/07/21 03:40:18;;;;;;;14.95;7.72;;;;;;;10.72;90.38;100229.31;5043505;28;20363;-67
2021/07/21 03:42:44;;;;;;;9.75;5.88;;;;;;;10.88;90.26;100164.41;5043476;28;20023;-67
2021/07/21 03:45:14;;;;;;;11.68;6.55;;;;;;;10.81;90.18;100131.00;5043384;28;20088;-67
2021/07/21 03:47:42;;;;;;;11.82;6.85;;;;;;;10.70;90.62;100185.41;5043486;28;20301;-67
2021/07/21 03:50:09;;;;;;;8.70;5.38;;;;;;;10.63;90.41;100258.22;5043412;28;20025;-67
2021/07/21 03:52:36;;;;;;;10.27;5.85;;;;;;;10.56;90.19;100230.09;5060827;28;20048;-67
2021/07/21 03:55:03;;;;;;;9.10;5.88;;;;;;;10.56;90.05;100179.19;5063319;28;20017;-67
2021/07/21 03:57:29;;;;;;;13.57;7.20;;;;;;;10.55;90.49;100243.25;5066159;28;20029;-67
2021/07/21 03:59:56;;;;;;;12.95;6.88;;;;;;;10.54;90.85;100262.56;5067124;28;20335;-67
2021/07/21 04:02:23;;;;;;;11.70;6.82;;;;;;;10.51;91.10;100284.47;5066923;28;20074;-67
2021/07/21 04:04:49;;;;;;;8.95;5.75;;;;;;;10.60;90.92;100321.41;5066748;28;20217;-67
2021/07/21 04:07:17;;;;;;;14.38;7.10;;;;;;;10.79;90.73;100357.53;5066706;28;20035;-67
2021/07/21 04:09:46;;;;;;;11.98;6.28;;;;;;;10.85;90.27;100412.00;5052616;28;20029;-67
2021/07/21 04:12:14;;;;;;;9.60;5.90;;;;;;;10.79;90.36;100396.19;5044970;28;20412;-67
2021/07/21 04:14:42;;;;;;;9.13;5.93;;;;;;;10.87;90.51;100357.59;5045793;28;20021;-67
2021/07/21 04:17:08;;;;;;;10.95;5.55;;;;;;;10.92;90.78;100366.41;5062183;28;20276;-67
2021/07/21 04:19:35;;;;;;;11.85;5.63;;;;;;;10.84;90.76;100399.72;5065262;28;20234;-67
2021/07/21 04:22:01;;;;;;;9.18;5.22;;;;;;;10.86;90.84;100395.34;5045694;28;20091;-67
2021/07/21 04:24:27;;;;;;;11.45;6.63;;;;;;;10.83;90.79;100500.69;5043998;28;20316;-67
2021/07/21 04:26:54;;;;;;;10.25;6.20;;;;;;;10.96;90.69;100452.50;5049320;28;20032;-67
2021/07/21 04:29:24;;;;;;;10.52;6.18;;;;;;;11.00;90.35;100380.50;5045554;28;20033;-67
2021/07/21 04:31:50;;;;;;;10.07;5.03;;;;;;;11.01;90.37;100323.44;5045516;28;20057;-67
2021/07/21 04:34:17;;;;;;;12.40;5.68;;;;;;;11.06;89.93;100267.22;5045424;28;20072;-67
2021/07/21 04:36:43;;;;;;;9.45;4.95;;;;;;;11.17;89.72;100373.56;5044988;28;20022;-67
2021/07/21 04:39:13;;;;;;;10.93;6.70;;;;;;;11.05;90.00;100305.00;5053161;28;20021;-67
2021/07/21 04:41:39;;;;;;;11.35;7.65;;;;;;;11.15;90.14;100296.28;5061960;28;20220;-67
2021/07/21 04:44:05;;;;;;;11.63;6.72;;;;;;;11.32;89.58;100265.56;5060460;28;20055;-67
2021/07/21 04:46:32;;;;;;;11.60;6.93;;;;;;;11.39;89.66;100264.72;5064385;28;20021;-67
2021/07/21 04:48:59;;;;;;;13.05;7.90;;;;;;;11.54;89.77;100256.84;5056595;28;20017;-67
2021/07/21 04:51:25;;;;;;;20.67;8.55;;;;;;;11.60;89.88;100264.78;5046083;28;20217;-67
2021/07/21 04:53:55;;;;;;;17.23;8.23;;;;;;;11.95;89.10;100315.91;5046018;28;20024;-67
2021/07/21 04:56:22;;;;;;;10.65;6.53;;;;;;;12.83;87.11;100343.22;5045985;28;20120;-67
2021/07/21 04:58:47;;;;;;;10.15;5.90;;;;;;;13.75;83.55;100356.19;5045963;28;20321;-67
2021/07/21 05:01:14;;;;;;;9.55;5.90;;;;;;;14.34;80.39;100370.00;5045925;28;20056;-67
2021/07/21 05:03:40;;;;;;;8.48;5.57;;;;;;;14.89;77.14;100371.31;5045797;28;20045;-67
2021/07/21 05:06:05;;;;;;;9.65;5.60;;;;;;;15.28;76.10;100370.91;5045704;28;20320;-67
2021/07/21 05:08:30;;;;;;;11.88;7.68;;;;;;;15.48;74.80;100347.72;5045095;28;20057;-67
2021/07/21 05:10:56;;;;;;;9.57;6.25;;;;;;;15.80;74.24;100350.84;5045671;28;20075;-67
2021/07/21 05:13:21;;;;;;;11.15;6.22;;;;;;;16.01;72.76;100329.28;5045610;28;20017;-67
2021/07/21 05:15:48;;;;;;;12.90;5.93;;;;;;;16.26;72.46;100343.97;5044740;28;20256;-67
2021/07/21 05:18:15;;;;;;;9.77;5.82;;;;;;;16.49;71.42;100360.47;5045599;28;20085;-67
2021/07/21 05:20:41;;;;;;;16.45;6.43;;;;;;;16.96;69.56;100357.91;5045493;28;20025;-67
2021/07/21 05:23:07;;;;;;;10.38;6.25;;;;;;;17.22;69.21;100350.31;5045437;28;20186;-67
2021/07/21 05:25:33;;;;;;;11.48;6.85;;;;;;;17.53;67.54;100365.75;5045327;28;20026;-67
2021/07/21 05:27:58;;;;;;;11.07;6.22;;;;;;;17.74;67.16;100354.63;5045353;28;20112;-67
2021/07/21 05:30:23;;;;;;;11.43;6.53;;;;;;;17.77;68.96;100343.94;5045270;28;20021;-67
2021/07/21 05:32:49;;;;;;;11.77;7.18;;;;;;;17.86;67.72;100333.06;5045251;28;20021;-67
2021/07/21 05:35:14;;;;;;;13.32;7.03;;;;;;;18.33;66.93;100351.53;5045146;28;20040;-67
2021/07/21 05:37:40;;;;;;;14.57;7.18;;;;;;;18.64;66.04;100348.13;5045161;28;20321;-67
2021/07/21 05:40:07;;;;;;;15.27;7.53;;;;;;;18.86;66.64;100337.81;5043961;28;20035;-67
2021/07/21 05:42:33;;;;;;;11.77;7.10;;;;;;;19.25;66.56;100358.09;5045010;28;20026;-67
2021/07/21 05:44:58;;;;;;;12.05;6.70;;;;;;;19.79;65.78;100377.97;5044961;28;20075;-68
2021/07/21 05:47:24;;;;;;;14.98;8.60;;;;;;;19.93;63.09;100359.72;5044962;28;20052;-68
2021/07/21 05:49:49;;;;;;;13.25;7.50;;;;;;;20.11;64.43;100359.19;5044939;28;20337;-68
2021/07/21 05:52:16;;;;;;;15.07;8.48;;;;;;;20.39;64.29;100338.72;5044885;28;20053;-68
2021/07/21 05:54:41;;;;;;;15.68;8.25;;;;;;;20.65;64.11;100336.06;5044825;28;20021;-68
2021/07/21 05:57:07;;;;;;;13.90;9.40;;;;;;;19.97;64.63;100267.84;5044825;28;20075;-68
2021/07/21 05:59:34;;;;;;;19.25;9.55;;;;;;;20.32;64.63;100302.38;5044738;28;20025;-68
2021/07/21 06:01:59;;;;;;;17.30;9.52;;;;;;;20.53;64.58;100323.06;5044687;28;20025;-69
2021/07/21 06:04:24;;;;;;;18.25;8.75;;;;;;;21.45;62.92;100340.44;5044495;28;20036;-69
2021/07/21 06:06:50;;;;;;;14.90;10.00;;;;;;;21.25;62.87;100323.28;5044560;28;20017;-68
2021/07/21 06:09:15;;;;;;;14.70;9.02;;;;;;;22.03;61.11;100338.22;5044437;28;20049;-68
2021/07/21 06:11:41;;;;;;;15.95;9.32;;;;;;;22.32;59.09;100316.50;5044571;28;20063;-68
2021/07/21 06:14:07;;;;;;;18.23;10.48;;;;;;;22.21;58.95;100259.69;5044538;28;20089;-68
2021/07/21 06:16:32;;;;;;;16.02;9.45;;;;;;;21.81;59.70;100226.50;5044485;28;20024;-68
2021/07/21 06:18:58;;;;;;;14.30;9.65;;;;;;;22.55;58.29;100269.94;5043689;28;20052;-68
2021/07/21 06:21:24;;;;;;;16.98;9.05;;;;;;;22.90;56.71;100261.25;5044359;28;20021;-68
2021/07/21 06:23:49;;;;;;;12.88;7.82;;;;;;;23.02;56.25;100245.50;5044316;28;20021;-68
2021/07/21 06:26:15;;;;;;;27.10;9.45;;;;;;;23.18;55.95;100229.53;5044241;28;20097;-68
2021/07/21 06:28:41;;;;;;;15.18;9.45;;;;;;;23.67;55.16;100250.59;5044273;28;20014;-68
2021/07/21 06:31:07;;;;;;;14.63;8.90;;;;;;;23.42;53.88;100217.72;5044198;28;20028;-68
2021/07/21 06:33:33;;;;;;;14.60;8.60;;;;;;;23.61;54.37;100217.72;5044197;28;20030;-68
2021/07/21 06:35:58;;;;;;;14.50;8.50;;;;;;;23.49;54.23;100203.06;5044145;28;20013;-68
2021/07/21 06:38:24;;;;;;;15.20;8.65;;;;;;;23.06;55.79;100181.75;5044445;28;20041;-68
2021/07/21 06:40:50;;;;;;;12.57;8.05;;;;;;;23.57;54.52;100211.59;5044124;28;20240;-68
2021/07/21 06:43:16;;;;;;;17.05;9.20;;;;;;;24.06;52.96;100211.03;5044018;28;20028;-68
2021/07/21 06:45:41;;;;;;;16.60;8.32;;;;;;;24.59;52.56;100228.09;5043964;28;20056;-68
2021/07/21 06:48:07;;;;;;;17.10;8.77;;;;;;;24.43;53.56;100210.09;5044060;28;20052;-68
2021/07/21 06:50:33;;;;;;;17.65;8.38;;;;;;;25.05;53.14;100235.53;5043967;28;20021;-68
2021/07/21 06:52:59;;;;;;;15.07;8.32;;;;;;;25.42;51.19;100236.28;5042794;28;20032;-68
2021/07/21 06:55:24;;;;;;;15.02;8.80;;;;;;;25.32;49.26;100208.09;5043916;28;20013;-68
2021/07/21 06:57:49;;;;;;;11.02;7.53;;;;;;;25.99;49.42;100233.97;5043912;28;20029;-68
2021/07/21 07:00:15;;;;;;;14.95;8.75;;;;;;;26.23;49.24;100226.28;5043883;28;20028;-68
2021/07/21 07:02:41;;;;;;;14.52;8.70;;;;;;;26.55;48.21;100227.97;5043787;28;20026;-68
2021/07/21 07:05:06;;;;;;;12.38;8.13;;;;;;;26.07;49.97;100195.75;5043753;28;20021;-68
2021/07/21 07:07:32;;;;;;;12.60;7.93;;;;;;;26.25;48.83;100191.97;5043669;28;20355;-68
2021/07/21 07:09:57;;;;;;;12.18;7.93;;;;;;;26.66;47.70;100210.19;5043762;28;20033;-68
2021/07/21 07:12:23;;;;;;;16.20;8.50;;;;;;;26.32;49.46;100169.06;5043788;28;20085;-68
2021/07/21 07:14:48;;;;;;;15.48;8.63;;;;;;;26.65;47.79;100184.16;5043705;28;20340;-68
2021/07/21 07:17:14;;;;;;;13.38;8.13;;;;;;;26.37;47.60;100164.25;5042559;28;20324;-68
2021/07/21 07:19:39;;;;;;;13.50;8.23;;;;;;;26.82;47.34;100170.47;5043727;28;20400;-68
2021/07/21 07:22:05;;;;;;;12.48;8.10;;;;;;;27.16;46.75;100188.19;5043640;28;20213;-68
2021/07/21 07:24:31;;;;;;;12.88;7.45;;;;;;;27.07;46.84;100156.31;5043564;28;20040;-68
2021/07/21 07:26:58;;;;;;;15.82;7.97;;;;;;;26.69;46.99;100131.66;5043628;28;20025;-68
2021/07/21 07:29:23;;;;;;;11.80;7.78;;;;;;;27.11;46.17;100147.03;5043619;28;20029;-68
2021/07/21 07:31:49;;;;;;;14.50;7.90;;;;;;;27.27;48.31;100148.72;5047176;28;20022;-68
2021/07/21 07:34:14;;;;;;;14.73;8.57;;;;;;;28.15;45.84;100165.47;5047555;28;20025;-68
2021/07/21 07:36:40;;;;;;;10.02;7.57;;;;;;;28.28;44.96;100168.25;5047462;28;20031;-68
2021/07/21 07:39:07;;;;;;;10.68;8.30;;;;;;;27.56;44.56;100117.13;5047390;28;20255;-68
2021/07/21 07:41:33;;;;;;;15.32;7.97;;;;;;;28.07;44.25;100135.34;5047352;28;20021;-68
2021/07/21 07:43:59;;;;;;;12.38;7.63;;;;;;;28.59;43.51;100144.41;5047303;28;20036;-68
2021/07/21 07:46:26;;;;;;;14.02;8.13;;;;;;;27.93;44.01;100094.78;5047206;28;20324;-68
2021/07/21 07:48:53;;;;;;;10.20;7.60;;;;;;;27.83;44.47;100080.09;5047208;28;20036;-68
2021/07/21 07:51:19;;;;;;;14.48;8.65;;;;;;;27.64;43.01;100049.81;5047210;28;20021;-68
2021/07/21 07:53:44;;;;;;;12.57;8.18;;;;;;;27.07;46.22;100021.16;5047102;28;20029;-68
2021/07/21 07:56:10;;;;;;;11.32;7.97;;;;;;;27.08;45.00;100022.88;5047155;28;20337;-68
2021/07/21 07:58:36;;;;;;;15.30;7.70;;;;;;;27.58;44.32;100123.28;5047034;28;20033;-68
2021/07/21 08:01:02;;;;;;;12.25;8.40;;;;;;;28.06;42.73;100103.81;5047021;28;20025;-68
2021/07/21 08:03:28;;;;;;;14.02;8.13;;;;;;;27.86;44.61;100077.22;5045778;28;20064;-68
2021/07/21 08:05:55;;;;;;;11.98;7.85;;;;;;;28.20;42.64;100079.41;5046818;28;20029;-68
2021/07/21 08:08:21;;;;;;;15.07;7.90;;;;;;;28.09;43.87;100052.16;5046768;28;20069;-68
2021/07/21 08:10:47;;;;;;;11.57;7.55;;;;;;;28.84;39.00;100071.25;5046834;28;20320;-68
2021/07/21 08:13:12;;;;;;;12.75;7.65;;;;;;;27.41;40.76;99982.88;5046780;28;20021;-68
2021/07/21 08:15:38;;;;;;;9.43;7.03;;;;;;;27.84;41.04;100008.75;5045606;28;20029;-68
2021/07/21 08:18:03;;;;;;;10.10;7.32;;;;;;;28.16;41.12;100020.97;5046666;28;20032;-68
2021/07/21 08:20:29;;;;;;;14.25;8.40;;;;;;;28.03;41.63;99993.03;5046637;28;20359;-68
2021/07/21 08:22:55;;;;;;;11.10;7.03;;;;;;;28.28;39.15;99998.47;5046589;28;20025;-68
2021/07/21 08:25:23;;;;;;;14.50;8.02;;;;;;;28.02;41.59;99971.47;5046528;28;20031;-68
2021/07/21 08:27:48;;;;;;;10.05;7.10;;;;;;;28.88;40.01;100004.97;5046541;28;20259;-68
2021/07/21 08:30:14;;;;;;;11.38;6.90;;;;;;;28.16;40.10;99963.28;5046443;28;20029;-68
2021/07/21 08:32:44;;;;;;;11.68;6.78;;;;;;;28.27;40.94;99957.94;5046456;28;20221;-68
2021/07/21 08:35:14;;;;;;;11.85;7.07;;;;;;;29.14;39.19;99990.41;5046358;28;20041;-68
2021/07/21 08:37:39;;;;;;;11.20;7.35;;;;;;;28.48;39.80;99934.81;5046382;28;20028;-68
2021/07/21 08:40:07;;;;;;;14.25;7.63;;;;;;;28.26;41.56;99926.44;5046252;28;20029;-68
2021/07/21 08:42:33;;;;;;;10.43;6.90;;;;;;;28.77;40.19;99941.69;5045649;28;20321;-68
2021/07/21 08:44:59;;;;;;;13.02;7.80;;;;;;;29.55;39.75;99972.91;5046115;28;20028;-68
2021/07/21 08:47:25;;;;;;;10.48;7.20;;;;;;;29.65;37.33;99968.53;5046170;28;20084;-68
2021/07/21 08:49:51;;;;;;;11.45;7.35;;;;;;;28.76;37.78;99902.00;5046131;28;20029;-68
2021/07/21 08:52:17;;;;;;;13.57;7.28;;;;;;;28.73;38.89;99897.66;5046090;28;20021;-68
2021/07/21 08:54:46;;;;;;;10.05;7.30;;;;;;;28.91;39.62;99901.75;5045249;28;20025;-68
2021/07/21 08:57:14;;;;;;;12.52;7.15;;;;;;;29.42;37.77;99923.25;5045982;28;20029;-68
2021/07/21 08:59:42;;;;;;;12.32;8.00;;;;;;;29.11;36.26;99897.59;5045890;28;20021;-68
2021/07/21 09:02:10;;;;;;;14.20;7.78;;;;;;;29.54;36.91;99916.91;5045884;28;20036;-68
2021/07/21 09:04:36;;;;;;;11.38;7.28;;;;;;;29.08;37.63;99882.38;5045686;28;20025;-68
2021/07/21 09:07:03;;;;;;;10.23;7.03;;;;;;;29.14;37.60;99871.09;5045782;28;20025;-68
2021/07/21 09:09:29;;;;;;;15.13;7.88;;;;;;;27.83;38.51;99798.63;5044445;28;20053;-68
2021/07/21 09:11:56;;;;;;;14.40;7.95;;;;;;;28.89;38.39;99871.16;5045690;28;20048;-68
2021/07/21 09:14:22;;;;;;;11.80;7.53;;;;;;;29.16;37.52;99862.84;5045669;28;20317;-68
2021/07/21 09:17:13;;;;;;;9.43;7.07;;;;;;;29.80;36.59;99896.78;5045589;28;20023;-68
2021/07/21 09:19:48;;;;;;;13.98;6.95;;;;;;;28.97;35.87;99830.78;5045641;28;20052;-68
2021/07/21 09:22:29;;;;;;;12.38;7.93;;;;;;;29.37;35.91;99844.94;5045572;28;20025;-68
2021/07/21 09:25:15;;;;;;;11.20;7.43;;;;;;;30.23;37.16;99865.25;5045458;28;20029;-68
2021/07/21 09:27:43;;;;;;;13.93;8.15;;;;;;;29.80;36.70;99831.63;5045382;28;20036;-68
2021/07/21 09:30:11;;;;;;;14.15;7.43;;;;;;;29.54;35.73;99802.94;5045341;28;20029;-68
2021/07/21 09:33:08;;;;;;;10.52;7.30;;;;;;;29.17;37.51;99792.19;5045293;28;20030;-68
2021/07/21 09:35:41;;;;;;;11.45;7.78;;;;;;;29.98;36.15;99819.28;5045244;28;20083;-68
2021/07/21 09:38:12;;;;;;;12.40;7.65;;;;;;;29.78;35.28;99795.59;5045214;28;20048;-68
2021/07/21 09:40:43;;;;;;;14.10;7.93;;;;;;;30.16;35.70;99809.69;5045252;28;20087;-68
2021/07/21 09:43:14;;;;;;;14.10;7.70;;;;;;;30.52;33.85;99814.84;5045105;28;20025;-68
2021/07/21 09:45:42;;;;;;;10.05;7.65;;;;;;;30.21;34.60;99788.50;5045098;28;20029;-68
2021/07/21 09:48:08;;;;;;;11.45;8.10;;;;;;;29.59;36.35;99754.56;5045003;28;20029;-68
2021/07/21 09:50:35;;;;;;;12.07;7.80;;;;;;;30.31;35.38;99774.00;5044965;28;20379;-68
2021/07/21 09:53:05;;;;;;;9.95;7.63;;;;;;;30.25;37.83;99762.78;5044906;28;20267;-68
2021/07/21 09:55:32;;;;;;;11.02;8.13;;;;;;;31.01;37.20;99780.75;5044863;28;20017;-68
2021/07/21 09:58:03;;;;;;;10.70;7.70;;;;;;;30.98;35.51;99785.59;5044851;28;20063;-68
2021/07/21 10:00:31;;;;;;;12.32;7.35;;;;;;;30.46;35.76;99761.00;5044806;28;20216;-68
2021/07/21 10:03:21;;;;;;;12.73;7.95;;;;;;;30.07;35.67;99734.38;5044686;28;20025;-68
2021/07/21 10:05:56;;;;;;;11.00;7.63;;;;;;;30.12;35.49;99722.13;5044636;28;20256;-68
2021/07/21 10:08:43;;;;;;;11.88;8.05;;;;;;;31.06;37.74;99761.31;5044504;28;20041;-68
2021/07/21 10:11:23;;;;;;;11.65;7.68;;;;;;;30.92;35.08;99748.03;5044736;28;20222;-68
2021/07/21 10:13:55;;;;;;;9.57;7.43;;;;;;;31.27;36.14;99736.84;5043453;28;20021;-68
2021/07/21 10:16:37;;;;;;;11.38;7.70;;;;;;;31.47;33.58;99742.31;5044550;28;20020;-68
2021/07/21 10:19:06;;;;;;;11.18;7.88;;;;;;;30.34;37.87;99686.81;5044472;28;20025;-68
2021/07/21 10:21:32;;;;;;;13.95;8.30;;;;;;;30.34;38.73;99694.13;5043259;28;20025;-68
2021/07/21 10:23:57;;;;;;;12.32;8.60;;;;;;;30.82;35.41;99714.47;5044367;28;20320;-68
2021/07/21 10:26:27;;;;;;;11.57;7.75;;;;;;;30.85;35.26;99697.91;5044288;28;20076;-68
2021/07/21 10:28:52;;;;;;;14.18;8.98;;;;;;;30.19;34.31;99665.50;5044318;28;20025;-68
2021/07/21 10:31:18;;;;;;;13.07;8.70;;;;;;;30.09;36.71;99659.06;5044212;28;20076;-68
2021/07/21 10:33:43;;;;;;;12.20;8.60;;;;;;;30.21;37.43;99663.53;5044227;28;20048;-68
2021/07/21 10:36:10;;;;;;;13.90;8.65;;;;;;;30.77;36.98;99681.38;5044168;28;20047;-68
2021/07/21 10:38:36;;;;;;;15.20;8.07;;;;;;;30.91;36.85;99686.50;5044121;28;20225;-68
2021/07/21 10:41:02;;;;;;;11.25;8.40;;;;;;;30.38;35.84;99654.81;5044101;28;20029;-68
2021/07/21 10:43:29;;;;;;;12.80;8.43;;;;;;;29.90;35.99;99626.28;5044057;28;20059;-68
2021/07/21 10:45:54;;;;;;;15.85;8.10;;;;;;;30.26;37.40;99636.81;5043979;28;20027;-68
2021/07/21 10:48:51;;;;;;;11.77;8.27;;;;;;;29.87;35.36;99599.38;5043960;28;20102;-68
2021/07/21 10:51:40;;;;;;;9.90;8.52;;;;;;;29.79;38.98;99607.28;5044013;28;20249;-68
2021/07/21 10:54:24;;;;;;;9.95;7.40;;;;;;;30.67;34.90;99629.63;5043976;28;20217;-68
2021/07/21 10:59:42;;;;;;;12.07;8.55;;;;;;;30.45;35.42;99612.56;5043910;28;20268;-68
2021/07/21 11:02:08;;;;;;;11.40;8.45;;;;;;;30.16;37.27;99578.81;5043866;28;20101;-68
2021/07/21 11:04:42;;;;;;;14.07;8.82;;;;;;;30.56;35.62;99598.94;5044373;28;20079;-68
2021/07/21 11:07:08;;;;;;;11.93;7.82;;;;;;;30.45;33.95;99580.81;5050402;28;20025;-68
2021/07/21 11:09:38;;;;;;;9.43;7.68;;;;;;;30.35;36.72;99568.13;5050251;28;20299;-68
2021/07/21 11:12:04;;;;;;;13.10;7.80;;;;;;;29.77;37.34;99544.16;5050469;28;20055;-68
2021/07/21 11:14:34;;;;;;;9.82;7.68;;;;;;;29.58;39.92;99554.75;5050369;28;20025;-68
2021/07/21 11:17:05;;;;;;;12.60;7.80;;;;;;;30.52;38.68;99583.84;5050391;28;20224;-68
2021/07/21 11:19:34;;;;;;;9.77;7.57;;;;;;;30.43;38.43;99571.06;5050314;28;20126;-68
2021/07/21 11:22:03;;;;;;;11.95;8.00;;;;;;;30.38;38.31;99563.31;5050265;28;20328;-68
2021/07/21 11:24:52;;;;;;;13.73;7.85;;;;;;;30.18;40.42;99544.28;5050298;28;20037;-68
2021/07/21 11:27:54;;;;;;;12.45;8.23;;;;;;;30.70;37.12;99552.38;5050163;28;20088;-68
2021/07/21 11:30:47;;;;;;;22.23;8.35;;;;;;;30.32;37.15;99519.50;5029053;28;20253;-68
2021/07/21 11:33:42;;;;;;;11.07;7.72;;;;;;;29.45;40.69;99488.94;5050190;28;20024;-68